Terminal Aerodrome Forecast
Issued by NWS

Home | Current Version | Previous Version | Graphics & Text | Print | Product List | Glossary Off
Versions: 1 2 3 4 5 6 7 8 9 10 11 12 13 14

000
FTUS43 KDDC 241100
TAFHYS
TAF
KHYS 241120Z 2412/2512 34011KT P6SM BKN110
     FM241500 34018G24KT P6SM SCT100
     FM242300 33008KT P6SM SKC=

USA.gov is the U.S. government's official web portal to all federal, state and local government web resources and services.